Time;durP1;ratioP1;P1;durP2;ratioP2;P2;SDS_P1;SDS_P2;PMS_P1;PMS_P2;Temp;Humidity;BMP_temperature;BMP_pressure;BME280_temperature;BME280_humidity;BME280_pressure;Samples;Min_cycle;Max_cycle;Signal;HPM_P1;HPM_P2
2022/03/03 00:01:07;;;;;;;74.72;37.28;;;3.00;99.90;;;;;;5131742;27;20062;-74
2022/03/03 00:03:34;;;;;;;75.18;38.78;;;3.00;99.90;;;;;;5129761;27;20070;-74
2022/03/03 00:05:59;;;;;;;79.35;38.17;;;3.00;99.90;;;;;;5130054;27;20495;-74
2022/03/03 00:08:25;;;;;;;77.80;38.50;;;2.90;99.90;;;;;;5131338;27;20071;-74
2022/03/03 00:10:51;;;;;;;75.63;36.83;;;2.90;99.90;;;;;;5131170;27;20129;-74
2022/03/03 00:13:16;;;;;;;75.43;38.38;;;3.90;99.90;;;;;;5130068;27;20034;-74
2022/03/03 00:15:42;;;;;;;78.18;38.20;;;3.10;99.90;;;;;;5131205;27;20071;-75
2022/03/03 00:18:07;;;;;;;75.95;36.65;;;4.40;99.90;;;;;;5112828;27;20451;-74
2022/03/03 00:20:33;;;;;;;72.55;37.05;;;3.20;99.90;;;;;;5129921;27;20102;-74
2022/03/03 00:22:59;;;;;;;72.20;37.58;;;2.90;99.90;;;;;;5113094;27;20050;-73
2022/03/03 00:25:25;;;;;;;74.90;37.28;;;2.90;99.90;;;;;;5130912;27;20039;-74
2022/03/03 00:27:51;;;;;;;80.22;37.55;;;2.90;99.90;;;;;;5130438;27;20061;-73
2022/03/03 00:30:16;;;;;;;79.07;39.42;;;2.90;99.90;;;;;;5132701;27;20046;-73
2022/03/03 00:32:43;;;;;;;77.45;37.90;;;2.90;99.90;;;;;;5132668;27;20494;-74
2022/03/03 00:35:10;;;;;;;76.13;38.95;;;2.90;99.90;;;;;;5135490;27;20043;-73
2022/03/03 00:37:37;;;;;;;74.63;37.80;;;2.80;99.90;;;;;;5133140;27;20045;-76
2022/03/03 00:40:04;;;;;;;75.60;37.55;;;2.80;99.90;;;;;;5134373;27;20179;-73
2022/03/03 00:42:31;;;;;;;74.10;37.10;;;2.70;99.90;;;;;;5152545;27;20049;-75
2022/03/03 00:44:57;;;;;;;70.38;36.83;;;2.80;99.90;;;;;;5132188;27;20050;-75
2022/03/03 00:47:23;;;;;;;73.38;37.25;;;3.60;99.90;;;;;;5150343;27;20526;-75
2022/03/03 00:49:49;;;;;;;77.32;37.00;;;2.70;99.90;;;;;;5135150;27;20054;-75
2022/03/03 00:52:17;;;;;;;75.10;37.63;;;2.70;99.90;;;;;;5152462;27;20117;-75
2022/03/03 00:54:43;;;;;;;78.63;38.58;;;2.60;99.90;;;;;;5132991;27;20149;-76
2022/03/03 00:57:08;;;;;;;71.03;37.60;;;2.60;99.90;;;;;;5134704;27;20250;-75
2022/03/03 00:59:34;;;;;;;75.28;37.72;;;2.60;99.90;;;;;;5133304;27;20083;-75
2022/03/03 01:02:00;;;;;;;72.93;38.08;;;2.60;99.90;;;;;;5133017;27;20581;-76
2022/03/03 01:04:25;;;;;;;68.88;36.08;;;2.60;99.90;;;;;;5117434;27;20060;-76
2022/03/03 01:06:51;;;;;;;71.82;37.28;;;2.50;99.90;;;;;;5151665;27;20034;-75
2022/03/03 01:09:17;;;;;;;74.55;37.20;;;2.50;99.90;;;;;;5134762;27;20063;-75
2022/03/03 01:11:42;;;;;;;72.25;36.53;;;2.50;99.90;;;;;;5153655;27;20103;-76
2022/03/03 01:14:08;;;;;;;70.85;36.17;;;2.50;99.90;;;;;;5134313;27;20137;-76
2022/03/03 01:16:34;;;;;;;73.43;35.92;;;2.40;99.90;;;;;;5131110;27;20039;-75
2022/03/03 01:18:59;;;;;;;71.32;37.45;;;2.70;99.90;;;;;;5151072;27;20111;-75
2022/03/03 01:21:25;;;;;;;73.15;37.83;;;2.30;99.90;;;;;;5134350;27;20070;-75
2022/03/03 01:23:53;;;;;;;71.93;37.67;;;2.30;99.90;;;;;;5132100;27;20047;-75
2022/03/03 01:26:19;;;;;;;77.97;37.47;;;2.20;99.90;;;;;;5134360;27;20119;-75
2022/03/03 01:28:45;;;;;;;69.82;36.00;;;2.20;99.90;;;;;;5132364;27;20047;-76
2022/03/03 01:31:10;;;;;;;68.28;35.72;;;2.80;99.90;;;;;;5152774;27;20054;-76
2022/03/03 01:33:37;;;;;;;71.30;37.50;;;2.20;99.90;;;;;;5132173;27;20364;-76
2022/03/03 01:36:03;;;;;;;69.30;35.33;;;2.20;99.90;;;;;;5150773;27;20526;-76
2022/03/03 01:38:28;;;;;;;74.65;36.95;;;2.20;99.90;;;;;;5115772;27;20047;-74
2022/03/03 01:40:54;;;;;;;64.75;35.50;;;2.20;99.90;;;;;;5133746;27;20473;-74
2022/03/03 01:43:20;;;;;;;68.13;35.35;;;2.10;99.90;;;;;;5132509;27;20515;-74
2022/03/03 01:45:46;;;;;;;68.97;36.20;;;2.20;99.90;;;;;;5133110;27;20107;-75
2022/03/03 01:48:11;;;;;;;74.90;36.38;;;2.10;99.90;;;;;;5132022;27;20043;-75
2022/03/03 01:50:37;;;;;;;69.80;35.78;;;2.10;99.90;;;;;;5132386;27;20093;-74
2022/03/03 01:53:04;;;;;;;71.93;36.13;;;2.10;99.90;;;;;;5126543;27;20038;-74
2022/03/03 01:55:31;;;;;;;69.70;35.60;;;2.10;99.90;;;;;;5152108;27;20066;-74
2022/03/03 01:58:01;;;;;;;72.00;37.78;;;3.00;99.90;;;;;;5150705;27;20058;-74
2022/03/03 02:00:27;;;;;;;71.13;36.28;;;3.10;99.90;;;;;;5133541;27;20061;-74
2022/03/03 02:02:53;;;;;;;68.68;36.03;;;;;;;;;;5131325;27;20070;-75
2022/03/03 02:05:19;;;;;;;66.20;35.05;;;2.10;99.90;;;;;;5150805;27;20050;-74
2022/03/03 02:07:44;;;;;;;72.70;36.50;;;2.00;99.90;;;;;;5150921;27;20043;-75
2022/03/03 02:10:11;;;;;;;67.78;35.03;;;1.60;99.90;;;;;;5135939;27;20038;-75
2022/03/03 02:12:37;;;;;;;67.70;35.83;;;2.90;99.90;;;;;;5132661;27;20186;-74
2022/03/03 02:15:04;;;;;;;69.97;35.67;;;3.10;99.90;;;;;;5133443;27;20494;-74
2022/03/03 02:17:30;;;;;;;69.72;35.50;;;2.00;99.90;;;;;;5130411;27;20042;-74
2022/03/03 02:19:56;;;;;;;73.25;36.22;;;2.00;99.90;;;;;;5151130;27;20042;-74
2022/03/03 02:22:21;;;;;;;69.18;34.88;;;1.90;99.90;;;;;;5132056;27;20047;-75
2022/03/03 02:24:47;;;;;;;66.50;34.38;;;1.90;99.90;;;;;;5132524;27;20049;-74
2022/03/03 02:27:13;;;;;;;70.90;35.90;;;1.90;99.90;;;;;;5132053;27;20478;-74
2022/03/03 02:29:39;;;;;;;70.88;35.45;;;1.80;99.90;;;;;;5131158;27;20435;-74
2022/03/03 02:32:07;;;;;;;66.78;35.38;;;2.60;99.90;;;;;;5152637;27;20183;-74
2022/03/03 02:34:34;;;;;;;71.50;37.15;;;1.80;99.90;;;;;;5133364;27;20039;-74
2022/03/03 02:36:59;;;;;;;65.82;34.80;;;1.70;99.90;;;;;;5115180;27;20038;-75
2022/03/03 02:39:25;;;;;;;65.53;34.78;;;2.60;99.90;;;;;;5132127;27;20380;-75
2022/03/03 02:41:51;;;;;;;68.65;34.72;;;2.30;99.90;;;;;;5127773;27;20035;-74
2022/03/03 02:44:17;;;;;;;70.25;36.15;;;2.50;99.90;;;;;;5132973;27;20065;-73
2022/03/03 02:46:43;;;;;;;66.95;34.55;;;2.60;99.90;;;;;;5130539;27;20130;-74
2022/03/03 02:49:11;;;;;;;66.68;34.90;;;1.00;99.90;;;;;;5134431;27;20494;-74
2022/03/03 02:51:37;;;;;;;69.60;35.75;;;1.60;99.90;;;;;;5130552;27;20106;-74
2022/03/03 02:54:02;;;;;;;65.10;35.03;;;1.60;99.90;;;;;;5114180;27;20038;-74
2022/03/03 02:56:28;;;;;;;71.20;36.42;;;1.60;99.90;;;;;;5150934;27;20067;-74
2022/03/03 02:58:54;;;;;;;67.93;36.40;;;1.50;99.90;;;;;;5132679;27;20108;-74
2022/03/03 03:01:19;;;;;;;65.63;34.67;;;1.50;99.90;;;;;;5115282;27;20104;-74
2022/03/03 03:03:45;;;;;;;68.65;35.30;;;2.30;99.90;;;;;;5129962;27;20057;-74
2022/03/03 03:06:14;;;;;;;65.05;34.65;;;1.50;99.90;;;;;;5150206;27;20039;-74
2022/03/03 03:08:41;;;;;;;63.15;34.45;;;1.50;99.90;;;;;;5113965;27;20082;-74
2022/03/03 03:11:06;;;;;;;63.20;33.60;;;1.50;99.90;;;;;;5132241;27;20522;-74
2022/03/03 03:13:32;;;;;;;65.38;34.60;;;2.70;99.90;;;;;;5132564;27;20061;-74
2022/03/03 03:15:58;;;;;;;68.20;35.58;;;1.50;99.90;;;;;;5131486;27;20495;-74
2022/03/03 03:18:23;;;;;;;64.28;34.08;;;1.60;99.90;;;;;;5129111;27;20067;-74
2022/03/03 03:20:52;;;;;;;63.45;33.83;;;1.50;99.90;;;;;;5114703;27;20614;-74
2022/03/03 03:23:19;;;;;;;67.90;34.53;;;1.50;99.90;;;;;;5131462;27;20103;-74
2022/03/03 03:25:46;;;;;;;69.35;34.88;;;1.40;99.90;;;;;;5114233;27;20049;-74
2022/03/03 03:28:13;;;;;;;67.50;35.10;;;1.50;99.90;;;;;;5131128;27;20100;-74
2022/03/03 03:30:40;;;;;;;65.95;34.70;;;1.50;99.90;;;;;;5130411;27;20085;-74
2022/03/03 03:33:06;;;;;;;65.30;35.28;;;1.40;99.90;;;;;;5130218;27;20467;-74
2022/03/03 03:35:32;;;;;;;65.53;35.05;;;1.40;99.90;;;;;;5116141;27;20069;-74
2022/03/03 03:37:58;;;;;;;63.97;33.05;;;1.40;99.90;;;;;;5127860;27;20027;-74
2022/03/03 03:40:24;;;;;;;65.78;34.10;;;1.40;99.90;;;;;;5112286;27;20520;-74
2022/03/03 03:42:50;;;;;;;63.17;34.15;;;1.40;99.90;;;;;;5115025;27;20047;-74
2022/03/03 03:45:16;;;;;;;64.60;34.25;;;1.40;99.90;;;;;;5114177;27;20046;-74
2022/03/03 03:47:42;;;;;;;66.05;33.85;;;1.40;99.90;;;;;;5129749;27;20606;-74
2022/03/03 03:50:11;;;;;;;68.38;34.28;;;1.30;99.90;;;;;;5130961;27;20137;-74
2022/03/03 03:52:37;;;;;;;62.70;32.90;;;1.30;99.90;;;;;;5108014;27;20393;-74
2022/03/03 03:55:04;;;;;;;62.53;33.75;;;1.30;99.90;;;;;;5121246;27;20043;-73
2022/03/03 03:57:30;;;;;;;68.10;35.33;;;1.30;99.90;;;;;;5111164;27;20062;-73
2022/03/03 03:59:56;;;;;;;60.08;34.60;;;1.30;99.90;;;;;;5114625;27;20129;-73
2022/03/03 04:02:22;;;;;;;65.15;34.40;;;1.30;99.90;;;;;;5112427;27;20159;-73
2022/03/03 04:04:47;;;;;;;65.18;33.42;;;1.30;99.90;;;;;;5133470;27;20154;-75
2022/03/03 04:07:14;;;;;;;63.17;33.78;;;1.30;99.90;;;;;;5117678;27;20368;-75
2022/03/03 04:09:40;;;;;;;61.50;33.40;;;2.50;99.90;;;;;;5134951;27;20372;-74
2022/03/03 04:12:06;;;;;;;63.50;32.38;;;1.30;99.90;;;;;;5135138;27;20054;-74
2022/03/03 04:14:32;;;;;;;61.40;33.47;;;1.30;99.90;;;;;;5134579;27;20062;-74
2022/03/03 04:16:58;;;;;;;59.55;33.05;;;1.30;99.90;;;;;;5117895;27;20481;-75
2022/03/03 04:19:24;;;;;;;58.97;33.00;;;1.30;99.90;;;;;;5133847;27;20042;-74
2022/03/03 04:21:50;;;;;;;58.63;32.08;;;1.30;99.90;;;;;;5134116;27;20500;-74
2022/03/03 04:24:15;;;;;;;54.63;31.23;;;2.50;99.90;;;;;;5136086;27;20045;-74
2022/03/03 04:26:41;;;;;;;57.63;32.03;;;1.30;99.90;;;;;;5135209;27;20042;-74
2022/03/03 04:29:07;;;;;;;60.13;32.88;;;1.30;99.90;;;;;;5117795;27;20046;-74
2022/03/03 04:31:32;;;;;;;57.67;31.45;;;1.20;99.90;;;;;;5135120;27;20042;-74
2022/03/03 04:33:58;;;;;;;56.70;31.15;;;1.20;99.90;;;;;;5132639;27;20401;-74
2022/03/03 04:36:24;;;;;;;53.80;30.48;;;2.70;99.90;;;;;;5131403;27;20047;-73
2022/03/03 04:38:50;;;;;;;58.35;31.85;;;1.20;99.90;;;;;;5148110;27;20054;-74
2022/03/03 04:41:16;;;;;;;57.47;31.30;;;1.20;99.90;;;;;;5135743;27;20095;-74
2022/03/03 04:43:42;;;;;;;54.40;29.13;;;1.30;99.90;;;;;;5099266;27;20039;-74
2022/03/03 04:46:08;;;;;;;56.70;30.42;;;1.20;99.90;;;;;;5118357;27;20069;-74
2022/03/03 04:48:34;;;;;;;58.38;31.85;;;1.20;99.90;;;;;;5133048;27;20096;-74
2022/03/03 04:51:01;;;;;;;55.95;29.85;;;1.20;99.90;;;;;;5135833;27;20047;-74
2022/03/03 04:53:27;;;;;;;55.50;29.35;;;1.20;99.90;;;;;;5116755;27;20066;-74
2022/03/03 04:55:54;;;;;;;57.97;31.35;;;1.20;99.90;;;;;;5133763;27;20046;-74
2022/03/03 04:58:20;;;;;;;59.85;31.52;;;1.10;99.90;;;;;;5130869;27;20050;-74
2022/03/03 05:00:46;;;;;;;57.13;30.60;;;1.10;99.90;;;;;;5132774;27;20150;-74
2022/03/03 05:03:12;;;;;;;51.78;30.17;;;1.20;99.90;;;;;;5131026;27;20092;-74
2022/03/03 05:05:38;;;;;;;54.38;30.33;;;1.20;99.90;;;;;;5130673;27;20551;-74
2022/03/03 05:08:04;;;;;;;54.60;31.13;;;1.90;99.90;;;;;;5130642;27;20076;-74
2022/03/03 05:10:30;;;;;;;59.42;30.83;;;1.20;99.90;;;;;;5130435;27;20118;-73
2022/03/03 05:12:57;;;;;;;56.42;31.92;;;2.40;99.90;;;;;;5130779;27;20046;-74
2022/03/03 05:15:23;;;;;;;56.80;30.30;;;1.00;99.90;;;;;;5128924;27;20146;-74
2022/03/03 05:17:48;;;;;;;55.53;30.13;;;1.00;99.90;;;;;;5111641;27;20071;-74
2022/03/03 05:20:14;;;;;;;54.53;29.58;;;0.90;99.90;;;;;;5130571;27;20089;-74
2022/03/03 05:22:41;;;;;;;59.63;32.05;;;1.00;99.90;;;;;;5128717;27;20045;-73
2022/03/03 05:25:07;;;;;;;55.50;31.00;;;0.90;99.90;;;;;;5130005;27;20055;-75
2022/03/03 05:27:33;;;;;;;56.38;29.92;;;0.90;99.90;;;;;;5129599;27;20089;-74
2022/03/03 05:29:59;;;;;;;57.50;30.55;;;1.20;99.90;;;;;;5130397;27;20082;-74
2022/03/03 05:32:25;;;;;;;55.08;29.60;;;0.80;99.90;;;;;;5116831;27;20039;-74
2022/03/03 05:34:51;;;;;;;55.22;31.00;;;0.80;99.90;;;;;;5126458;27;20047;-74
2022/03/03 05:37:24;;;;;;;56.58;30.55;;;0.80;99.90;;;;;;5121405;27;20138;-73
2022/03/03 05:39:51;;;;;;;53.38;29.73;;;0.80;99.90;;;;;;5130858;27;20057;-74
2022/03/03 05:42:19;;;;;;;52.92;28.90;;;0.80;99.90;;;;;;5128753;27;20035;-74
2022/03/03 05:44:49;;;;;;;52.30;28.48;;;0.80;99.90;;;;;;5129726;27;20051;-74
2022/03/03 05:47:15;;;;;;;51.42;29.00;;;0.80;99.90;;;;;;5128873;27;20046;-74
2022/03/03 05:49:43;;;;;;;54.05;29.02;;;0.80;99.90;;;;;;5128293;27;20057;-74
2022/03/03 05:52:09;;;;;;;53.90;31.00;;;0.80;99.90;;;;;;5112557;27;20166;-74
2022/03/03 05:54:39;;;;;;;58.00;31.10;;;0.80;99.90;;;;;;5129235;27;20081;-73
2022/03/03 05:57:10;;;;;;;56.08;29.33;;;0.80;99.90;;;;;;5129127;27;20082;-74
2022/03/03 05:59:39;;;;;;;55.08;30.13;;;-0.20;99.90;;;;;;5129025;27;20072;-74
2022/03/03 06:02:05;;;;;;;58.78;31.10;;;0.80;99.90;;;;;;5100421;27;20035;-74
2022/03/03 06:04:32;;;;;;;57.13;30.13;;;0.80;99.90;;;;;;5128135;27;20395;-74
2022/03/03 06:07:05;;;;;;;55.20;29.85;;;0.80;99.90;;;;;;5108382;28;20058;-74
2022/03/03 06:09:33;;;;;;;55.63;30.98;;;0.80;99.90;;;;;;5125817;27;20042;-74
2022/03/03 06:12:06;;;;;;;55.65;30.23;;;0.70;99.90;;;;;;5128361;27;20063;-74
2022/03/03 06:14:37;;;;;;;54.80;30.65;;;0.70;99.90;;;;;;5129450;27;20371;-74
2022/03/03 06:17:04;;;;;;;55.35;29.95;;;0.70;99.90;;;;;;5124156;27;20043;-73
2022/03/03 06:19:33;;;;;;;58.63;31.67;;;0.70;99.90;;;;;;5127936;27;20047;-74
2022/03/03 06:21:59;;;;;;;59.70;30.77;;;0.60;99.90;;;;;;5125017;27;20099;-74
2022/03/03 06:24:24;;;;;;;57.63;31.35;;;0.60;99.90;;;;;;5126703;27;20496;-74
2022/03/03 06:26:50;;;;;;;54.75;30.52;;;1.50;99.90;;;;;;5126608;27;20039;-74
2022/03/03 06:29:19;;;;;;;57.70;32.42;;;0.60;99.90;;;;;;5127008;27;20051;-74
2022/03/03 06:31:45;;;;;;;59.30;31.90;;;1.90;99.90;;;;;;5127279;27;20043;-74
2022/03/03 06:34:11;;;;;;;54.60;32.03;;;0.60;99.90;;;;;;5129796;27;20399;-73
2022/03/03 06:36:37;;;;;;;58.58;30.02;;;0.70;99.90;;;;;;5131714;27;20065;-73
2022/03/03 06:39:03;;;;;;;56.90;30.88;;;0.70;99.90;;;;;;5128143;27;20065;-75
2022/03/03 06:41:29;;;;;;;58.70;31.25;;;0.80;99.90;;;;;;5125363;27;20497;-73
2022/03/03 06:43:55;;;;;;;57.30;30.55;;;0.70;99.90;;;;;;5110233;27;20040;-74
2022/03/03 06:46:21;;;;;;;59.15;30.00;;;0.80;99.90;;;;;;5128180;27;20042;-74
2022/03/03 06:48:47;;;;;;;59.20;30.52;;;0.80;99.90;;;;;;5126271;27;20047;-74
2022/03/03 06:51:17;;;;;;;59.40;30.80;;;0.90;99.90;;;;;;5129939;27;20096;-74
2022/03/03 06:53:46;;;;;;;61.78;31.70;;;1.00;99.90;;;;;;5109795;27;20536;-74
2022/03/03 06:56:15;;;;;;;60.47;32.50;;;1.10;99.90;;;;;;5114318;27;20051;-73
2022/03/03 06:58:41;;;;;;;55.33;29.88;;;1.30;99.90;;;;;;5128733;27;20364;-73
2022/03/03 07:01:12;;;;;;;56.15;30.73;;;1.60;99.90;;;;;;5093370;27;20047;-73
2022/03/03 07:03:41;;;;;;;53.78;30.40;;;1.90;99.90;;;;;;5119463;27;20062;-74
2022/03/03 07:06:07;;;;;;;54.80;30.35;;;2.20;99.90;;;;;;5130689;27;20069;-75
2022/03/03 07:08:33;;;;;;;55.28;30.48;;;2.80;99.90;;;;;;5130387;27;20078;-74
2022/03/03 07:11:00;;;;;;;51.83;30.13;;;3.40;99.90;;;;;;5113984;27;20046;-74
2022/03/03 07:13:25;;;;;;;54.10;28.90;;;3.90;99.90;;;;;;5149972;27;20074;-75
2022/03/03 07:15:53;;;;;;;50.78;28.88;;;4.70;99.90;;;;;;5130881;27;20053;-80
2022/03/03 07:18:23;;;;;;;50.95;28.90;;;5.70;99.90;;;;;;5129847;27;20035;-80
2022/03/03 07:21:03;;;;;;;49.38;28.58;;;5.50;99.90;;;;;;5130526;27;20071;-79
2022/03/03 07:23:48;;;;;;;52.45;29.15;;;5.90;99.90;;;;;;5130682;27;20096;-79
2022/03/03 07:26:16;;;;;;;50.88;28.25;;;6.30;99.90;;;;;;5131697;27;20046;-79
2022/03/03 07:28:51;;;;;;;53.40;29.42;;;6.80;99.90;;;;;;5130235;27;20038;-80
2022/03/03 07:31:18;;;;;;;52.25;28.73;;;7.50;99.90;;;;;;5130515;27;20031;-80
2022/03/03 07:33:55;;;;;;;47.63;27.90;;;7.20;99.90;;;;;;5129536;27;20129;-76
2022/03/03 07:36:31;;;;;;;50.63;29.30;;;7.40;99.90;;;;;;5148708;27;20084;-74
2022/03/03 07:38:59;;;;;;;48.03;29.23;;;7.90;99.90;;;;;;5129997;27;20095;-75
2022/03/03 07:41:27;;;;;;;49.03;29.10;;;7.20;99.90;;;;;;5130196;27;20046;-75
2022/03/03 07:43:55;;;;;;;49.70;29.08;;;7.50;99.90;;;;;;5114510;27;20506;-75
2022/03/03 07:46:22;;;;;;;50.90;28.33;;;7.60;99.90;;;;;;5121175;27;20456;-75
2022/03/03 07:48:47;;;;;;;46.40;28.35;;;7.90;99.90;;;;;;5107105;28;20594;-75
2022/03/03 07:51:14;;;;;;;47.83;28.00;;;8.60;99.90;;;;;;5109584;28;20583;-76
2022/03/03 07:53:40;;;;;;;42.63;26.52;;;9.80;99.90;;;;;;5109229;27;20095;-76
2022/03/03 07:56:08;;;;;;;48.10;27.63;;;10.70;99.90;;;;;;5111329;27;20089;-76
2022/03/03 07:58:41;;;;;;;43.60;27.23;;;10.40;99.90;;;;;;5112676;27;20126;-75
2022/03/03 08:01:09;;;;;;;43.55;26.83;;;9.10;99.90;;;;;;5131062;27;20171;-76
2022/03/03 08:03:34;;;;;;;44.20;27.73;;;8.80;99.90;;;;;;5128292;27;20043;-76
2022/03/03 08:06:01;;;;;;;44.50;26.58;;;8.30;99.90;;;;;;5130391;27;20418;-76
2022/03/03 08:08:29;;;;;;;43.55;27.33;;;11.10;99.90;;;;;;5130670;27;20114;-76
2022/03/03 08:11:03;;;;;;;46.88;27.63;;;12.40;99.90;;;;;;5129450;27;20517;-76
2022/03/03 08:13:30;;;;;;;43.28;26.08;;;14.20;99.90;;;;;;5129771;27;20123;-76
2022/03/03 08:15:56;;;;;;;42.65;26.55;;;15.80;99.80;;;;;;5130517;27;20051;-76
2022/03/03 08:18:27;;;;;;;39.38;26.05;;;17.00;96.90;;;;;;5129178;27;20123;-76
2022/03/03 08:20:56;;;;;;;42.33;26.17;;;18.20;95.20;;;;;;5129406;27;20053;-76
2022/03/03 08:23:25;;;;;;;41.97;26.48;;;18.60;92.50;;;;;;5148982;27;20517;-74
2022/03/03 08:25:52;;;;;;;39.08;25.13;;;19.00;87.20;;;;;;5129056;27;20043;-77
2022/03/03 08:28:20;;;;;;;37.67;25.88;;;16.40;91.80;;;;;;5147656;27;20143;-74
2022/03/03 08:30:47;;;;;;;39.60;26.45;;;14.50;95.70;;;;;;5125341;28;20100;-75
2022/03/03 08:33:19;;;;;;;37.95;26.02;;;13.70;97.90;;;;;;5092040;28;20066;-74
2022/03/03 08:35:54;;;;;;;38.97;25.92;;;11.90;99.90;;;;;;5127375;27;20134;-74
2022/03/03 08:38:35;;;;;;;42.70;25.97;;;11.20;99.90;;;;;;5129140;27;20043;-75
2022/03/03 08:41:04;;;;;;;38.22;25.83;;;10.60;99.90;;;;;;5129989;27;20438;-76
2022/03/03 08:43:32;;;;;;;39.10;26.02;;;10.60;99.90;;;;;;5130108;27;20093;-76
2022/03/03 08:46:02;;;;;;;39.50;26.30;;;11.90;99.90;;;;;;5129538;27;20051;-76
2022/03/03 08:48:31;;;;;;;41.28;26.10;;;15.00;98.10;;;;;;5132829;27;20039;-76
2022/03/03 08:50:58;;;;;;;38.78;25.63;;;16.90;94.00;;;;;;5126846;27;20081;-76
2022/03/03 08:53:24;;;;;;;38.80;27.00;;;19.00;90.10;;;;;;5131930;27;20043;-75
2022/03/03 08:55:53;;;;;;;36.42;24.95;;;20.90;78.20;;;;;;5131924;27;20047;-75
2022/03/03 08:58:20;;;;;;;33.50;24.67;;;22.40;66.50;;;;;;5129789;27;20514;-75
2022/03/03 09:00:48;;;;;;;34.88;24.98;;;23.50;59.00;;;;;;5113079;27;20089;-75
2022/03/03 09:03:15;;;;;;;36.03;24.58;;;24.50;55.50;;;;;;5112279;27;20043;-75
2022/03/03 09:05:41;;;;;;;33.60;24.52;;;25.30;51.40;;;;;;5112808;27;20051;-74
2022/03/03 09:08:07;;;;;;;34.30;24.92;;;25.30;48.80;;;;;;5131469;27;20497;-75
2022/03/03 09:10:33;;;;;;;31.85;24.00;;;25.70;48.90;;;;;;5113422;27;20471;-76
2022/03/03 09:13:00;;;;;;;30.38;23.13;;;26.30;48.30;;;;;;5131122;27;20380;-75
2022/03/03 09:15:30;;;;;;;33.22;23.52;;;26.90;46.70;;;;;;5132221;27;20043;-76
2022/03/03 09:17:56;;;;;;;32.05;23.98;;;26.80;45.50;;;;;;5130268;27;20047;-76
2022/03/03 09:20:22;;;;;;;33.13;23.98;;;27.30;45.10;;;;;;5131990;27;20106;-76
2022/03/03 09:22:48;;;;;;;29.73;23.35;;;27.70;45.30;;;;;;5133194;27;20141;-76
2022/03/03 09:25:14;;;;;;;30.35;22.90;;;28.10;43.70;;;;;;5133722;27;20053;-76
2022/03/03 09:27:42;;;;;;;33.67;24.08;;;28.30;44.10;;;;;;5145779;27;20067;-82
2022/03/03 09:30:10;;;;;;;29.85;23.17;;;28.40;43.70;;;;;;5144851;27;20078;-82
2022/03/03 09:32:36;;;;;;;28.38;22.23;;;28.70;43.20;;;;;;5134081;27;20066;-82
2022/03/03 09:35:02;;;;;;;29.40;22.23;;;29.40;43.00;;;;;;5116424;27;20483;-82
2022/03/03 09:37:28;;;;;;;27.55;21.67;;;29.80;42.80;;;;;;5131129;27;20119;-83
2022/03/03 09:39:54;;;;;;;28.50;21.00;;;30.70;42.00;;;;;;5123199;27;20126;-82
2022/03/03 09:42:20;;;;;;;25.60;20.95;;;31.00;41.30;;;;;;5131971;27;20096;-74
2022/03/03 09:44:46;;;;;;;26.25;19.77;;;31.00;40.30;;;;;;5133047;27;20471;-75
2022/03/03 09:47:12;;;;;;;25.50;20.65;;;31.00;40.10;;;;;;5149033;27;20046;-74
2022/03/03 09:49:39;;;;;;;25.98;20.38;;;31.40;39.50;;;;;;5131018;27;20053;-75
2022/03/03 09:52:16;;;;;;;23.88;19.42;;;31.10;39.40;;;;;;5141049;27;20062;-75
2022/03/03 09:54:50;;;;;;;28.42;20.63;;;31.10;38.70;;;;;;5113046;27;20054;-74
2022/03/03 09:57:17;;;;;;;22.85;19.42;;;30.90;38.50;;;;;;5151496;27;20086;-73
2022/03/03 09:59:46;;;;;;;24.52;20.23;;;30.90;38.50;;;;;;5150927;27;20122;-75
2022/03/03 10:02:12;;;;;;;23.17;19.73;;;30.10;37.90;;;;;;5113390;27;20135;-75
2022/03/03 10:04:37;;;;;;;21.60;17.45;;;30.10;37.80;;;;;;5131912;27;20087;-75
2022/03/03 10:07:08;;;;;;;22.00;17.88;;;30.30;37.90;;;;;;5128173;27;20483;-76
2022/03/03 10:09:59;;;;;;;20.88;16.73;;;30.20;37.50;;;;;;5110912;27;20058;-74
2022/03/03 10:12:22;;;;;;;22.55;16.90;;;30.20;36.80;;;;;;5119803;27;20057;-73
2022/03/03 10:14:48;;;;;;;18.17;15.05;;;30.40;37.50;;;;;;5131374;27;20063;-74
2022/03/03 10:17:15;;;;;;;20.27;15.23;;;31.30;37.10;;;;;;5102027;27;20070;-75
2022/03/03 10:19:57;;;;;;;18.85;15.25;;;31.60;36.40;;;;;;5132807;27;20509;-74
2022/03/03 10:22:48;;;;;;;19.63;14.60;;;32.00;35.30;;;;;;5149774;27;20046;-74
2022/03/03 10:25:26;;;;;;;19.42;15.18;;;32.10;34.70;;;;;;5126325;27;20035;-73
2022/03/03 10:27:52;;;;;;;18.25;14.70;;;31.90;33.90;;;;;;5126781;27;20049;-74
2022/03/03 10:30:17;;;;;;;18.45;15.23;;;31.70;34.30;;;;;;5121905;27;20043;-74
2022/03/03 10:32:43;;;;;;;16.92;14.25;;;32.10;34.30;;;;;;5129761;27;20050;-74
2022/03/03 10:35:19;;;;;;;18.90;14.85;;;32.70;34.00;;;;;;5117266;27;20050;-75
2022/03/03 10:37:47;;;;;;;17.58;14.73;;;33.10;34.00;;;;;;5126591;27;20579;-76
2022/03/03 10:40:15;;;;;;;20.33;15.70;;;33.50;34.20;;;;;;5128218;27;20046;-74
2022/03/03 10:42:44;;;;;;;18.00;14.35;;;32.90;33.20;;;;;;5113685;27;20433;-75
2022/03/03 10:45:12;;;;;;;16.77;14.48;;;33.70;33.60;;;;;;5108524;27;20423;-74
2022/03/03 10:47:44;;;;;;;18.75;14.15;;;34.30;33.30;;;;;;5115320;27;20442;-75
2022/03/03 10:50:09;;;;;;;16.75;13.50;;;33.80;32.50;;;;;;5127724;27;20054;-74
2022/03/03 10:52:36;;;;;;;17.17;14.50;;;33.30;32.60;;;;;;5126826;27;20038;-74
2022/03/03 10:55:03;;;;;;;15.90;13.57;;;33.60;32.90;;;;;;5128722;27;20049;-71
2022/03/03 10:57:38;;;;;;;15.40;13.25;;;33.90;33.10;;;;;;5124922;27;20051;-72
2022/03/03 11:00:19;;;;;;;19.25;15.20;;;34.70;32.50;;;;;;5111173;27;20387;-72
2022/03/03 11:02:50;;;;;;;19.08;14.50;;;33.80;32.40;;;;;;5109200;27;20042;-72
2022/03/03 11:05:17;;;;;;;18.48;14.05;;;34.70;32.90;;;;;;5109713;27;20404;-72
2022/03/03 11:07:45;;;;;;;17.75;13.73;;;35.70;32.60;;;;;;5108484;27;20051;-72
2022/03/03 11:10:14;;;;;;;17.73;13.98;;;36.60;32.00;;;;;;5128284;27;20070;-72
2022/03/03 11:12:42;;;;;;;15.60;13.82;;;36.50;31.70;;;;;;5109459;27;20046;-72
2022/03/03 11:15:09;;;;;;;17.08;13.85;;;37.10;31.20;;;;;;5127622;27;20047;-72
2022/03/03 11:17:35;;;;;;;14.68;12.80;;;36.20;31.00;;;;;;5111447;27;20031;-72
2022/03/03 11:20:02;;;;;;;16.30;13.85;;;35.40;31.20;;;;;;5110186;27;20383;-72
2022/03/03 11:22:31;;;;;;;16.55;13.52;;;36.00;31.30;;;;;;5110612;27;20079;-72
2022/03/03 11:24:58;;;;;;;17.13;14.25;;;35.90;31.10;;;;;;5111246;27;20062;-72
2022/03/03 11:27:35;;;;;;;17.88;14.25;;;36.30;31.50;;;;;;5110957;27;20514;-72
2022/03/03 11:30:30;;;;;;;18.85;15.02;;;36.70;31.70;;;;;;5111310;27;20055;-72
2022/03/03 11:33:26;;;;;;;16.48;14.68;;;36.90;31.60;;;;;;5109531;27;20066;-73
2022/03/03 11:35:56;;;;;;;16.92;14.45;;;36.80;30.90;;;;;;5124259;27;20121;-72
2022/03/03 11:38:24;;;;;;;16.98;14.20;;;36.50;30.90;;;;;;5131025;27;20092;-72
2022/03/03 11:41:03;;;;;;;16.60;14.60;;;36.40;31.00;;;;;;5130039;27;20049;-73
2022/03/03 11:43:30;;;;;;;18.58;14.63;;;36.10;31.60;;;;;;5130740;27;20065;-72
2022/03/03 11:45:59;;;;;;;17.42;15.52;;;35.40;31.20;;;;;;5131198;27;20057;-73
2022/03/03 11:48:37;;;;;;;17.92;16.00;;;35.30;31.60;;;;;;5129700;27;20069;-74
2022/03/03 11:51:34;;;;;;;17.63;15.73;;;35.50;31.90;;;;;;5129832;27;20086;-73
2022/03/03 11:54:12;;;;;;;18.13;15.63;;;35.40;32.10;;;;;;5109882;27;20846;-72
2022/03/03 11:57:04;;;;;;;18.88;15.15;;;35.10;32.00;;;;;;5092529;27;20158;-72
2022/03/03 11:59:33;;;;;;;19.02;15.57;;;34.40;31.90;;;;;;5100209;28;20129;-73
2022/03/03 12:02:01;;;;;;;17.20;15.35;;;34.10;32.10;;;;;;5111106;28;20447;-72
2022/03/03 12:04:27;;;;;;;17.77;13.88;;;34.20;32.00;;;;;;5128197;28;20073;-72
2022/03/03 12:06:54;;;;;;;17.45;14.50;;;34.50;32.00;;;;;;5128160;28;20051;-73
2022/03/03 12:09:30;;;;;;;18.05;14.52;;;34.80;32.30;;;;;;5132150;27;20475;-73
2022/03/03 12:12:13;;;;;;;18.05;14.55;;;34.90;31.90;;;;;;5130540;27;20129;-73
2022/03/03 12:14:53;;;;;;;16.77;14.93;;;35.50;31.80;;;;;;5129642;27;20050;-73
2022/03/03 12:17:58;;;;;;;16.15;13.88;;;36.00;31.30;;;;;;5129929;27;20083;-72
2022/03/03 12:20:24;;;;;;;15.38;13.77;;;35.70;30.80;;;;;;5130622;27;20061;-72
2022/03/03 12:23:04;;;;;;;18.73;14.05;;;35.20;30.60;;;;;;5128807;27;20038;-73
2022/03/03 12:25:57;;;;;;;17.67;14.77;;;35.30;30.70;;;;;;5115978;27;20389;-73
2022/03/03 12:28:40;;;;;;;16.42;14.23;;;35.40;30.80;;;;;;5135558;27;20062;-73
2022/03/03 12:31:25;;;;;;;16.77;14.02;;;35.40;31.10;;;;;;5134617;27;20043;-72
2022/03/03 12:33:55;;;;;;;16.45;14.15;;;36.20;31.10;;;;;;5115492;27;20143;-72
2022/03/03 12:36:21;;;;;;;16.88;14.35;;;37.00;30.80;;;;;;5134669;27;20042;-73
2022/03/03 12:38:48;;;;;;;20.58;13.80;;;37.40;31.00;;;;;;5133815;27;20231;-72